Time;durP1;ratioP1;P1;durP2;ratioP2;P2;SDS_P1;SDS_P2;PMS_P1;PMS_P2;Temp;Humidity;BMP_temperature;BMP_pressure;BME280_temperature;BME280_humidity;BME280_pressure;Samples;Min_cycle;Max_cycle;Signal;HPM_P1;HPM_P2
2022/09/14 00:00:08;;;;;;;4.77;2.43;;;12.60;89.00;;;;;;5070096;28;20301;-68
2022/09/14 00:06:15;;;;;;;3.87;2.47;;;12.70;89.10;;;;;;5085329;28;20249;-68
2022/09/14 00:08:42;;;;;;;6.00;2.83;;;12.70;89.50;;;;;;5085109;28;20368;-68
2022/09/14 00:11:11;;;;;;;3.30;2.30;;;12.60;89.30;;;;;;5085262;28;20051;-68
2022/09/14 00:13:39;;;;;;;4.90;2.30;;;12.60;89.20;;;;;;5085137;28;20282;-68
2022/09/14 00:16:09;;;;;;;6.20;2.83;;;12.60;89.00;;;;;;5067813;28;20281;-68
2022/09/14 00:18:35;;;;;;;5.47;2.73;;;12.60;89.00;;;;;;5068306;28;20308;-68
2022/09/14 00:21:06;;;;;;;3.87;2.40;;;12.60;89.20;;;;;;5064534;28;20314;-68
2022/09/14 00:23:35;;;;;;;4.43;2.40;;;12.60;89.60;;;;;;5077533;28;20774;-68
2022/09/14 00:26:06;;;;;;;6.43;2.77;;;12.50;89.50;;;;;;5084297;28;20704;-68
2022/09/14 00:28:49;;;;;;;6.13;2.87;;;12.60;89.40;;;;;;5085861;28;20282;-68
2022/09/14 00:31:16;;;;;;;4.57;2.60;;;12.60;89.50;;;;;;5085378;28;20342;-68
2022/09/14 00:33:43;;;;;;;5.97;2.60;;;12.60;89.30;;;;;;5068358;28;20278;-68
2022/09/14 00:36:12;;;;;;;7.67;2.77;;;12.70;89.50;;;;;;5066255;28;20270;-68
2022/09/14 00:38:38;;;;;;;6.07;2.83;;;12.70;89.60;;;;;;5079514;28;20284;-68
2022/09/14 00:41:06;;;;;;;4.97;2.70;;;12.80;90.10;;;;;;5085359;28;20309;-68
2022/09/14 00:43:32;;;;;;;3.50;2.20;;;12.90;90.20;;;;;;5086243;28;20285;-68
2022/09/14 00:46:01;;;;;;;5.17;3.03;;;12.90;90.20;;;;;;5085334;28;20282;-68
2022/09/14 00:48:29;;;;;;;8.37;3.37;;;13.00;89.90;;;;;;5050922;28;20366;-69
2022/09/14 00:50:55;;;;;;;3.73;2.23;;;13.00;90.20;;;;;;5085612;28;20766;-68
2022/09/14 00:53:21;;;;;;;7.10;2.80;;;13.10;90.10;;;;;;5071690;28;20287;-68
2022/09/14 00:55:47;;;;;;;5.60;2.37;;;13.10;90.00;;;;;;5050867;28;20102;-68
2022/09/14 00:58:13;;;;;;;5.30;2.50;;;13.10;90.00;;;;;;5070183;28;20673;-68
2022/09/14 01:00:39;;;;;;;5.47;2.50;;;13.10;90.00;;;;;;5069038;28;20076;-68
2022/09/14 01:03:04;;;;;;;6.47;2.80;;;13.20;90.00;;;;;;5084471;28;20036;-68
2022/09/14 01:05:42;;;;;;;5.13;2.17;;;13.20;89.80;;;;;;5068095;28;20168;-68
2022/09/14 01:08:40;;;;;;;6.10;2.80;;;13.30;90.00;;;;;;5087093;28;20047;-68
2022/09/14 01:11:24;;;;;;;7.17;3.03;;;13.30;89.90;;;;;;5050006;28;20781;-68
2022/09/14 01:14:13;;;;;;;9.07;2.93;;;13.30;89.90;;;;;;5089402;28;20646;-68
2022/09/14 01:17:21;;;;;;;5.87;2.70;;;13.30;89.80;;;;;;5047564;28;20631;-68
2022/09/14 01:20:15;;;;;;;4.07;2.13;;;13.30;89.90;;;;;;5059089;28;20286;-68
2022/09/14 01:23:10;;;;;;;4.43;2.20;;;13.30;90.00;;;;;;5090392;28;20341;-68
2022/09/14 01:25:48;;;;;;;5.00;2.55;;;13.20;90.10;;;;;;5090453;28;20335;-68
2022/09/14 01:28:31;;;;;;;3.93;2.60;;;13.20;89.90;;;;;;5061938;28;20094;-68
2022/09/14 01:31:00;;;;;;;5.33;2.97;;;13.20;89.80;;;;;;5088430;28;20832;-68
2022/09/14 01:33:38;;;;;;;6.57;2.73;;;13.20;89.90;;;;;;5088593;28;20365;-68
2022/09/14 01:36:06;;;;;;;5.57;2.47;;;13.10;89.80;;;;;;5077666;28;20315;-68
2022/09/14 01:38:59;;;;;;;6.13;2.73;;;13.10;89.90;;;;;;5070991;28;20699;-68
2022/09/14 01:41:30;;;;;;;5.73;2.07;;;13.10;89.90;;;;;;5084724;28;20302;-68
2022/09/14 01:44:12;;;;;;;5.43;2.50;;;13.00;89.90;;;;;;5073411;28;20282;-68
2022/09/14 01:46:46;;;;;;;7.53;2.53;;;13.00;90.20;;;;;;5087797;28;20309;-68
2022/09/14 01:49:22;;;;;;;5.93;2.50;;;13.00;90.00;;;;;;5091219;28;20274;-68
2022/09/14 01:52:11;;;;;;;7.17;2.90;;;13.00;90.00;;;;;;5086996;28;20226;-68
2022/09/14 01:55:03;;;;;;;4.70;2.93;;;13.00;90.10;;;;;;5081291;28;20335;-68
2022/09/14 01:57:41;;;;;;;6.13;3.17;;;12.90;90.10;;;;;;5087763;28;20274;-68
2022/09/14 02:00:19;;;;;;;5.43;2.53;;;12.90;90.30;;;;;;5072221;28;20278;-68
2022/09/14 02:02:57;;;;;;;7.93;2.73;;;12.90;90.50;;;;;;5088240;28;20327;-68
2022/09/14 02:05:41;;;;;;;7.17;2.63;;;12.90;90.30;;;;;;5078523;28;20306;-68
2022/09/14 02:08:07;;;;;;;6.40;2.50;;;12.90;90.30;;;;;;5087958;28;20293;-68
2022/09/14 02:10:34;;;;;;;6.80;2.60;;;12.80;90.10;;;;;;5087787;28;20337;-68
2022/09/14 02:13:00;;;;;;;4.43;2.30;;;12.80;90.10;;;;;;5088029;28;20297;-68
2022/09/14 02:15:26;;;;;;;8.13;2.63;;;12.80;90.00;;;;;;5070038;28;20286;-68
2022/09/14 02:17:53;;;;;;;5.17;2.50;;;12.80;89.90;;;;;;5086809;28;20036;-68
2022/09/14 02:20:25;;;;;;;5.60;2.57;;;12.80;89.80;;;;;;5087524;28;20353;-68
2022/09/14 02:22:51;;;;;;;8.47;2.60;;;12.80;90.00;;;;;;5086997;28;20333;-68
2022/09/14 02:25:18;;;;;;;6.97;2.97;;;12.70;89.80;;;;;;5087153;28;20364;-68
2022/09/14 02:27:43;;;;;;;5.43;3.23;;;12.70;89.90;;;;;;5087377;28;20036;-68
2022/09/14 02:30:10;;;;;;;4.33;2.80;;;12.70;90.20;;;;;;5070712;28;20279;-68
2022/09/14 02:33:31;;;;;;;7.80;2.90;;;12.70;90.30;;;;;;5068377;28;20036;-68
2022/09/14 02:36:02;;;;;;;7.23;2.87;;;12.70;90.80;;;;;;5084331;28;20365;-68
2022/09/14 02:38:41;;;;;;;6.20;3.10;;;12.70;91.00;;;;;;5072198;28;20286;-68
2022/09/14 02:41:28;;;;;;;5.43;2.70;;;12.60;91.10;;;;;;5086899;28;20790;-68
2022/09/14 02:44:04;;;;;;;7.83;2.43;;;12.60;91.10;;;;;;5067383;28;20286;-68
2022/09/14 02:46:51;;;;;;;5.87;2.10;;;12.70;91.10;;;;;;5086843;28;20270;-68
2022/09/14 02:49:41;;;;;;;8.17;2.93;;;12.70;91.20;;;;;;5076653;28;20758;-68
2022/09/14 02:52:29;;;;;;;5.33;2.63;;;12.80;91.00;;;;;;5072098;28;20314;-68
2022/09/14 02:55:09;;;;;;;6.60;2.70;;;12.80;91.10;;;;;;5088241;28;20339;-68
2022/09/14 02:58:07;;;;;;;5.23;2.73;;;12.80;91.20;;;;;;5086080;28;20281;-68
2022/09/14 03:00:37;;;;;;;7.33;3.00;;;12.90;91.10;;;;;;5076077;28;21063;-68
2022/09/14 03:03:04;;;;;;;8.17;3.33;;;12.90;91.30;;;;;;5087262;28;20282;-68
2022/09/14 03:05:30;;;;;;;5.00;2.37;;;12.90;91.30;;;;;;5069139;28;20274;-68
2022/09/14 03:07:56;;;;;;;7.27;3.07;;;12.90;91.80;;;;;;5087496;28;20277;-68
2022/09/14 03:10:22;;;;;;;4.70;3.00;;;12.90;91.50;;;;;;5069734;28;20281;-69
2022/09/14 03:12:47;;;;;;;5.90;3.30;;;12.90;91.40;;;;;;5072651;28;20082;-68
2022/09/14 03:15:13;;;;;;;5.20;2.80;;;12.90;91.30;;;;;;5052711;28;20048;-68
2022/09/14 03:17:43;;;;;;;6.97;2.77;;;12.90;91.20;;;;;;5056872;28;20551;-68
2022/09/14 03:20:10;;;;;;;4.33;2.60;;;12.90;91.30;;;;;;5070384;28;20122;-68
2022/09/14 03:22:36;;;;;;;7.67;2.80;;;12.90;91.10;;;;;;5057894;28;20298;-68
2022/09/14 03:25:01;;;;;;;5.40;2.90;;;13.00;91.20;;;;;;5080295;28;20289;-68
2022/09/14 03:27:27;;;;;;;7.50;3.03;;;13.00;91.60;;;;;;5070748;28;20086;-68
2022/09/14 03:29:53;;;;;;;6.00;3.20;;;13.10;91.40;;;;;;5086927;28;20118;-68
2022/09/14 03:32:18;;;;;;;6.93;3.07;;;13.10;91.50;;;;;;5060313;28;20046;-68
2022/09/14 03:34:44;;;;;;;6.17;2.60;;;13.20;91.70;;;;;;5074239;28;20046;-68
2022/09/14 03:37:09;;;;;;;6.90;2.53;;;13.20;91.40;;;;;;5069146;28;20079;-68
2022/09/14 03:39:35;;;;;;;7.83;2.90;;;13.20;91.30;;;;;;5069525;28;20044;-68
2022/09/14 03:42:01;;;;;;;8.27;2.60;;;13.30;91.20;;;;;;5087166;28;20043;-68
2022/09/14 03:44:26;;;;;;;6.57;3.27;;;13.30;91.30;;;;;;5068295;28;20044;-69
2022/09/14 03:46:52;;;;;;;6.27;2.63;;;13.30;91.10;;;;;;5087356;28;20061;-68
2022/09/14 03:49:18;;;;;;;6.33;2.63;;;13.30;91.20;;;;;;5062514;28;20048;-68
2022/09/14 03:51:43;;;;;;;8.87;2.97;;;13.30;91.10;;;;;;5046262;28;20188;-68
2022/09/14 03:54:09;;;;;;;5.07;2.63;;;13.30;91.30;;;;;;5069522;28;20044;-68
2022/09/14 03:56:35;;;;;;;7.07;3.20;;;13.30;91.30;;;;;;5051399;28;20044;-68
2022/09/14 03:59:00;;;;;;;6.20;2.83;;;13.40;91.30;;;;;;5067952;28;20464;-68
2022/09/14 04:01:26;;;;;;;8.20;2.23;;;13.40;91.20;;;;;;5068595;28;20141;-68
2022/09/14 04:03:52;;;;;;;5.80;2.53;;;13.40;91.30;;;;;;5069835;28;20051;-68
2022/09/14 04:06:18;;;;;;;7.07;2.50;;;13.40;91.30;;;;;;5086110;28;20047;-68
2022/09/14 04:08:45;;;;;;;6.70;2.40;;;13.40;91.30;;;;;;5086916;28;20047;-68
2022/09/14 04:11:21;;;;;;;8.47;3.10;;;13.50;91.50;;;;;;5083935;28;20932;-68
2022/09/14 04:13:47;;;;;;;5.77;2.40;;;13.50;91.30;;;;;;5066201;28;20368;-68
2022/09/14 04:16:14;;;;;;;5.43;2.20;;;13.50;91.40;;;;;;5067670;28;20806;-68
2022/09/14 04:18:40;;;;;;;6.83;2.87;;;13.50;91.20;;;;;;5085360;28;20310;-68
2022/09/14 04:21:11;;;;;;;4.60;2.63;;;13.50;91.30;;;;;;5063858;28;20372;-68
2022/09/14 04:23:37;;;;;;;6.13;2.50;;;13.40;91.50;;;;;;5076897;28;20045;-68
2022/09/14 04:26:12;;;;;;;5.53;2.90;;;13.40;91.60;;;;;;5057501;28;20915;-68
2022/09/14 04:28:38;;;;;;;;;;;13.30;91.90;;;;;;5080346;28;20966;-69
2022/09/14 04:31:04;;;;;;;6.97;3.17;;;13.30;92.20;;;;;;5085376;28;20323;-68
2022/09/14 04:33:33;;;;;;;4.80;2.70;;;13.30;92.60;;;;;;5069942;28;20312;-68
2022/09/14 04:36:03;;;;;;;6.53;3.60;;;13.30;92.60;;;;;;5090434;28;20318;-68
2022/09/14 04:38:30;;;;;;;5.70;2.60;;;13.30;92.30;;;;;;5085150;28;20285;-68
2022/09/14 04:40:56;;;;;;;6.03;2.70;;;13.20;92.10;;;;;;5084558;28;20302;-68
2022/09/14 04:43:23;;;;;;;7.17;2.70;;;13.20;92.00;;;;;;5086098;28;20365;-68
2022/09/14 04:45:49;;;;;;;5.37;2.37;;;13.20;92.00;;;;;;5054950;28;20270;-68
2022/09/14 04:48:15;;;;;;;6.73;2.93;;;13.20;91.90;;;;;;5069151;28;20331;-68
2022/09/14 04:50:41;;;;;;;6.30;2.63;;;13.20;91.70;;;;;;5055002;28;20274;-68
2022/09/14 04:53:07;;;;;;;7.87;2.80;;;13.20;91.80;;;;;;5068127;28;20585;-68
2022/09/14 04:55:33;;;;;;;6.47;2.40;;;13.20;91.90;;;;;;5084023;28;20286;-68
2022/09/14 04:57:58;;;;;;;7.03;2.70;;;13.20;92.00;;;;;;5056572;28;20488;-68
2022/09/14 05:00:24;;;;;;;6.70;2.80;;;13.20;92.10;;;;;;5050277;28;20077;-68
2022/09/14 05:02:50;;;;;;;5.87;2.73;;;13.20;92.30;;;;;;5048542;28;20127;-68
2022/09/14 05:05:16;;;;;;;4.20;2.70;;;13.30;92.40;;;;;;5064397;28;20398;-68
2022/09/14 05:07:41;;;;;;;5.90;2.70;;;13.30;92.70;;;;;;5066772;28;20244;-68
2022/09/14 05:10:07;;;;;;;8.67;2.63;;;13.30;92.80;;;;;;5084328;28;20042;-68
2022/09/14 05:12:33;;;;;;;7.00;2.50;;;13.30;92.80;;;;;;5050815;28;20056;-68
2022/09/14 05:14:59;;;;;;;8.17;2.97;;;13.30;93.00;;;;;;5067670;28;20059;-68
2022/09/14 05:17:25;;;;;;;4.33;2.67;;;13.40;93.10;;;;;;5053337;28;20040;-69
2022/09/14 05:19:50;;;;;;;4.57;2.60;;;13.40;93.20;;;;;;5084549;28;20467;-68
2022/09/14 05:22:16;;;;;;;6.73;2.93;;;13.40;93.20;;;;;;5047561;28;20151;-68
2022/09/14 05:24:42;;;;;;;5.90;2.90;;;13.50;93.00;;;;;;5065355;28;20456;-68
2022/09/14 05:27:08;;;;;;;8.23;2.33;;;13.50;93.00;;;;;;5083193;28;20043;-68
2022/09/14 05:29:33;;;;;;;7.50;3.00;;;13.50;92.80;;;;;;5059682;28;20051;-69
2022/09/14 05:31:59;;;;;;;8.73;3.40;;;13.60;92.80;;;;;;5062638;28;20115;-66
2022/09/14 05:34:25;;;;;;;5.07;2.53;;;13.60;92.80;;;;;;5064572;28;20563;-66
2022/09/14 05:36:50;;;;;;;7.30;2.80;;;13.60;92.80;;;;;;5083542;28;20404;-66
2022/09/14 05:39:17;;;;;;;4.03;2.60;;;13.70;92.80;;;;;;5047889;28;20059;-69
2022/09/14 05:41:43;;;;;;;9.07;2.50;;;13.70;92.70;;;;;;5080503;28;20453;-68
2022/09/14 05:44:08;;;;;;;5.63;2.73;;;13.80;92.60;;;;;;5069860;28;20282;-68
2022/09/14 05:46:34;;;;;;;7.23;2.30;;;13.80;92.50;;;;;;5073481;28;20135;-68
2022/09/14 05:49:00;;;;;;;8.57;2.60;;;13.80;92.40;;;;;;5071180;28;20120;-68
2022/09/14 05:51:26;;;;;;;4.80;2.20;;;13.90;92.40;;;;;;5054128;28;20044;-68
2022/09/14 05:53:57;;;;;;;3.53;2.23;;;13.90;92.40;;;;;;5070831;28;20420;-69
2022/09/14 05:56:25;;;;;;;4.33;1.80;;;14.00;92.20;;;;;;5072388;28;20979;-68
2022/09/14 05:58:50;;;;;;;5.60;2.30;;;14.00;92.20;;;;;;5069402;28;20696;-69
2022/09/14 06:01:19;;;;;;;6.77;2.23;;;14.10;92.00;;;;;;5092304;28;20333;-69
2022/09/14 06:03:46;;;;;;;6.97;2.20;;;14.10;91.80;;;;;;5069779;28;20040;-68
2022/09/14 06:06:14;;;;;;;9.63;2.20;;;14.20;91.80;;;;;;5040058;27;20540;-69
2022/09/14 06:08:40;;;;;;;6.80;2.17;;;14.30;91.70;;;;;;5071360;28;20361;-69
2022/09/14 06:11:08;;;;;;;6.00;1.83;;;14.30;91.80;;;;;;5070910;28;20373;-68
2022/09/14 06:13:35;;;;;;;4.73;1.50;;;14.40;91.60;;;;;;5089684;28;20087;-69
2022/09/14 06:16:06;;;;;;;4.43;2.00;;;14.50;91.60;;;;;;5070079;28;20290;-69
2022/09/14 06:18:34;;;;;;;3.10;1.77;;;14.50;91.40;;;;;;5087464;28;20665;-69
2022/09/14 06:21:00;;;;;;;5.77;1.50;;;14.60;91.40;;;;;;5052256;28;20336;-69
2022/09/14 06:23:27;;;;;;;5.63;2.00;;;14.70;91.20;;;;;;5085272;28;20287;-69
2022/09/14 06:25:54;;;;;;;4.90;1.93;;;14.80;91.20;;;;;;5071783;28;20305;-69
2022/09/14 06:28:20;;;;;;;6.93;1.83;;;14.90;90.90;;;;;;5070132;28;20282;-69
2022/09/14 06:30:46;;;;;;;7.63;2.47;;;15.00;90.80;;;;;;5070912;28;20315;-69
2022/09/14 06:33:12;;;;;;;4.13;1.97;;;15.10;90.70;;;;;;5069813;28;20282;-69
2022/09/14 06:35:37;;;;;;;3.97;1.20;;;15.20;90.50;;;;;;5086129;28;20040;-69
2022/09/14 06:38:03;;;;;;;5.53;1.57;;;15.30;90.20;;;;;;5085656;28;20515;-69
2022/09/14 06:40:29;;;;;;;4.50;0.80;;;15.40;89.90;;;;;;5088223;28;20519;-69
2022/09/14 06:42:56;;;;;;;3.07;0.60;;;15.50;89.10;;;;;;5089127;28;20044;-69
2022/09/14 06:45:22;;;;;;;3.37;0.70;;;15.50;88.50;;;;;;5057465;28;20127;-69
2022/09/14 06:47:47;;;;;;;1.73;0.70;;;15.60;87.60;;;;;;5065348;28;20290;-69
2022/09/14 06:50:13;;;;;;;2.63;0.60;;;15.60;86.70;;;;;;5053266;28;20452;-69
2022/09/14 06:52:39;;;;;;;2.07;0.80;;;15.70;86.90;;;;;;5052943;28;20047;-69
2022/09/14 06:55:05;;;;;;;3.57;0.90;;;15.80;86.70;;;;;;5069771;28;20093;-69
2022/09/14 06:57:30;;;;;;;5.43;1.13;;;15.80;86.70;;;;;;5086791;28;20040;-69
2022/09/14 06:59:56;;;;;;;3.13;0.97;;;15.90;86.80;;;;;;5086903;28;20270;-69
2022/09/14 07:02:22;;;;;;;2.83;0.80;;;16.00;86.60;;;;;;5082065;28;20036;-69
2022/09/14 07:04:47;;;;;;;3.47;1.10;;;16.10;86.50;;;;;;5056583;28;20047;-69
2022/09/14 07:07:15;;;;;;;2.23;0.90;;;16.20;86.40;;;;;;5084061;28;20353;-69
2022/09/14 07:09:40;;;;;;;4.50;1.60;;;16.20;86.10;;;;;;5079332;28;20447;-69
2022/09/14 07:12:08;;;;;;;3.67;1.27;;;16.30;85.80;;;;;;5059153;28;20270;-69
2022/09/14 07:14:35;;;;;;;1.73;0.70;;;16.40;85.30;;;;;;5050078;28;20055;-69
2022/09/14 07:17:01;;;;;;;2.10;0.80;;;16.40;84.70;;;;;;5102296;28;20286;-69
2022/09/14 07:19:26;;;;;;;3.83;0.63;;;16.40;84.70;;;;;;5086317;28;20286;-69
2022/09/14 07:21:53;;;;;;;3.53;0.97;;;16.50;84.00;;;;;;5084659;28;20071;-69
2022/09/14 07:24:19;;;;;;;2.50;0.70;;;16.50;83.30;;;;;;5066192;28;20033;-69
2022/09/14 07:26:45;;;;;;;3.03;0.67;;;16.50;82.90;;;;;;5084090;28;20406;-69
2022/09/14 07:29:13;;;;;;;4.03;0.80;;;16.50;83.10;;;;;;5085715;28;20028;-69
2022/09/14 07:31:44;;;;;;;2.13;1.10;;;16.60;82.90;;;;;;5084893;28;20131;-69
2022/09/14 07:34:10;;;;;;;4.90;0.80;;;16.60;82.90;;;;;;5067236;28;20306;-69
2022/09/14 07:36:37;;;;;;;4.90;0.70;;;16.70;82.30;;;;;;5068071;28;20328;-69
2022/09/14 07:39:08;;;;;;;3.20;0.70;;;16.70;81.90;;;;;;5074111;28;20150;-66
2022/09/14 07:41:34;;;;;;;3.63;0.93;;;16.80;82.10;;;;;;5082985;28;20674;-66
2022/09/14 07:44:03;;;;;;;1.93;0.60;;;16.80;81.40;;;;;;5057137;28;20643;-66
2022/09/14 07:46:32;;;;;;;3.90;0.60;;;16.80;80.60;;;;;;5086689;28;20777;-66
2022/09/14 07:49:02;;;;;;;2.63;0.57;;;16.80;80.40;;;;;;5082507;28;21697;-67
2022/09/14 07:51:29;;;;;;;2.40;0.57;;;16.80;80.90;;;;;;5084012;28;20282;-67
2022/09/14 07:53:56;;;;;;;3.03;0.90;;;16.90;80.60;;;;;;5066135;28;20320;-66
2022/09/14 07:56:24;;;;;;;2.83;0.50;;;16.90;80.90;;;;;;5055887;28;20731;-66
2022/09/14 07:58:53;;;;;;;4.47;0.63;;;17.00;81.10;;;;;;5039895;28;20278;-67
2022/09/14 08:01:19;;;;;;;4.40;0.67;;;17.00;81.10;;;;;;5067686;28;20313;-67
2022/09/14 08:03:47;;;;;;;3.03;0.70;;;17.10;80.80;;;;;;5081137;28;20786;-67
2022/09/14 08:06:25;;;;;;;1.70;0.40;;;17.20;80.60;;;;;;5067925;28;20044;-67
2022/09/14 08:08:52;;;;;;;3.87;0.50;;;17.30;79.90;;;;;;5071912;28;20274;-68
2022/09/14 08:11:21;;;;;;;2.87;0.40;;;17.40;79.10;;;;;;5066768;28;20286;-68
2022/09/14 08:13:52;;;;;;;2.53;0.20;;;17.50;78.50;;;;;;5084504;28;20282;-68
2022/09/14 08:16:19;;;;;;;4.40;0.80;;;17.60;76.90;;;;;;5080510;28;20363;-68
2022/09/14 08:18:46;;;;;;;1.90;0.70;;;17.60;76.40;;;;;;5069122;28;20278;-68
2022/09/14 08:21:15;;;;;;;5.10;0.70;;;17.70;77.30;;;;;;5065075;28;20310;-68
2022/09/14 08:23:42;;;;;;;3.73;0.70;;;17.80;76.60;;;;;;5061664;28;20274;-68
2022/09/14 08:26:19;;;;;;;2.47;0.40;;;17.80;76.10;;;;;;5085603;28;20281;-68
2022/09/14 08:28:47;;;;;;;4.07;0.50;;;18.00;77.00;;;;;;5081231;28;20760;-69
2022/09/14 08:31:16;;;;;;;2.83;0.40;;;18.10;77.00;;;;;;5082285;28;20716;-68
2022/09/14 08:33:44;;;;;;;1.77;0.50;;;18.30;75.60;;;;;;5082349;28;20286;-68
2022/09/14 08:36:12;;;;;;;2.73;0.40;;;18.30;75.30;;;;;;5080014;28;20298;-68
2022/09/14 08:38:38;;;;;;;3.33;0.40;;;18.40;74.20;;;;;;5080862;28;20074;-68
2022/09/14 08:41:27;;;;;;;2.40;0.40;;;18.50;73.70;;;;;;5047429;28;20040;-68
2022/09/14 08:43:53;;;;;;;2.83;0.47;;;18.60;72.40;;;;;;5055105;28;20054;-68
2022/09/14 08:46:28;;;;;;;2.73;0.30;;;18.60;73.60;;;;;;5064217;28;20085;-69
2022/09/14 08:48:55;;;;;;;2.60;0.50;;;18.70;72.60;;;;;;5079363;28;20275;-68
2022/09/14 08:51:21;;;;;;;2.40;0.50;;;18.70;72.50;;;;;;5083088;28;20063;-68
2022/09/14 08:53:51;;;;;;;3.13;0.60;;;18.70;72.80;;;;;;5090663;28;20406;-68
2022/09/14 08:56:21;;;;;;;2.47;0.40;;;18.70;71.70;;;;;;5083229;28;20055;-68
2022/09/14 08:59:18;;;;;;;2.97;0.20;;;18.60;71.70;;;;;;5066949;28;20623;-68
2022/09/14 09:02:12;;;;;;;2.30;0.23;;;18.70;71.30;;;;;;5082629;28;20349;-68
2022/09/14 09:04:50;;;;;;;3.03;0.30;;;18.70;71.20;;;;;;5063698;28;20044;-69
2022/09/14 09:07:45;;;;;;;1.67;0.23;;;18.80;70.50;;;;;;5067719;28;20036;-68
2022/09/14 09:10:12;;;;;;;3.80;0.20;;;18.90;69.10;;;;;;5064088;28;20036;-68
2022/09/14 09:12:46;;;;;;;3.77;0.30;;;18.90;67.20;;;;;;5082481;28;20439;-68
2022/09/14 09:15:22;;;;;;;2.37;0.30;;;19.00;67.50;;;;;;5083822;28;20040;-68
2022/09/14 09:17:57;;;;;;;2.83;0.40;;;19.20;67.70;;;;;;5082699;28;20529;-69
2022/09/14 09:20:36;;;;;;;1.83;0.20;;;19.40;67.90;;;;;;5085626;28;20040;-69
2022/09/14 09:23:22;;;;;;;1.83;0.40;;;19.60;66.40;;;;;;5071060;28;20083;-68
2022/09/14 09:26:20;;;;;;;5.63;0.70;;;19.70;65.10;;;;;;5085581;28;20043;-68
2022/09/14 09:28:52;;;;;;;2.73;0.33;;;19.80;63.80;;;;;;5071069;28;20043;-68
2022/09/14 09:31:52;;;;;;;3.13;0.40;;;19.90;63.90;;;;;;5087272;28;20036;-68
2022/09/14 09:34:27;;;;;;;2.40;0.20;;;20.10;61.60;;;;;;5076366;28;20451;-68
2022/09/14 09:36:54;;;;;;;1.63;0.13;;;20.20;62.90;;;;;;5085554;28;20408;-68
2022/09/14 09:39:24;;;;;;;1.90;0.30;;;20.50;62.70;;;;;;5088600;28;20081;-68
2022/09/14 09:42:04;;;;;;;5.80;0.30;;;20.60;62.10;;;;;;5088042;28;20043;-68
2022/09/14 09:44:57;;;;;;;3.00;0.33;;;20.80;60.80;;;;;;5088883;28;20059;-69
2022/09/14 09:47:33;;;;;;;4.87;0.40;;;21.00;60.60;;;;;;5072499;28;20044;-69
2022/09/14 09:50:15;;;;;;;4.73;0.43;;;21.20;62.10;;;;;;5088798;28;20036;-69
2022/09/14 09:52:54;;;;;;;3.70;0.30;;;21.40;61.10;;;;;;5087640;28;20056;-68
2022/09/14 09:55:35;;;;;;;1.67;0.30;;;21.50;59.50;;;;;;5097413;28;20046;-69
2022/09/14 09:58:39;;;;;;;4.07;0.53;;;21.50;60.10;;;;;;5087531;28;20362;-69
2022/09/14 10:01:33;;;;;;;1.87;0.53;;;21.60;58.90;;;;;;5007220;28;20038;-69
2022/09/14 10:04:17;;;;;;;3.50;0.30;;;21.50;56.60;;;;;;5008343;28;20081;-69
2022/09/14 10:06:45;;;;;;;4.43;0.33;;;21.40;56.00;;;;;;5068454;28;20051;-68
2022/09/14 10:09:20;;;;;;;3.20;0.20;;;21.10;55.70;;;;;;5086684;28;20037;-68
2022/09/14 10:11:56;;;;;;;1.47;0.43;;;21.20;58.30;;;;;;5077522;28;20131;-69
2022/09/14 10:14:24;;;;;;;1.67;0.20;;;21.40;57.80;;;;;;5077806;28;20508;-69
2022/09/14 10:16:51;;;;;;;3.53;0.30;;;21.50;57.30;;;;;;5064251;28;20562;-69
2022/09/14 10:19:28;;;;;;;2.27;0.30;;;21.60;56.20;;;;;;5075218;28;20131;-69
2022/09/14 10:22:27;;;;;;;2.30;0.30;;;21.70;55.40;;;;;;5075586;28;20061;-69
2022/09/14 10:25:01;;;;;;;3.57;0.40;;;21.80;56.60;;;;;;5072239;28;20065;-69
2022/09/14 10:27:41;;;;;;;1.25;0.30;;;21.80;56.50;;;;;;5069443;28;20104;-69
2022/09/14 10:30:16;;;;;;;3.00;0.60;;;21.90;56.40;;;;;;5068523;28;20040;-69
2022/09/14 10:33:00;;;;;;;3.43;0.20;;;22.00;57.20;;;;;;5069876;28;20048;-69
2022/09/14 10:35:54;;;;;;;3.30;0.43;;;22.00;57.10;;;;;;5086593;28;20054;-68
2022/09/14 10:38:33;;;;;;;3.87;0.40;;;22.00;55.40;;;;;;5091618;28;20054;-68
2022/09/14 10:41:36;;;;;;;2.83;0.37;;;21.80;56.20;;;;;;5087289;28;20115;-68
2022/09/14 10:44:35;;;;;;;4.77;0.97;;;21.50;56.40;;;;;;5078309;28;20177;-68
2022/09/14 10:47:20;;;;;;;3.77;0.60;;;21.30;56.60;;;;;;5061000;28;20036;-68
2022/09/14 10:50:19;;;;;;;4.43;0.85;;;21.20;57.10;;;;;;5067608;28;20712;-68
2022/09/14 10:52:59;;;;;;;2.23;0.20;;;21.10;57.70;;;;;;5067825;28;20109;-68
2022/09/14 10:55:52;;;;;;;2.77;0.40;;;21.00;57.50;;;;;;5101010;28;20228;-68
2022/09/14 10:58:23;;;;;;;2.97;0.50;;;21.00;58.80;;;;;;5086863;28;20510;-68
2022/09/14 11:01:10;;;;;;;3.73;0.40;;;21.00;58.20;;;;;;5087026;28;20581;-68
2022/09/14 11:03:58;;;;;;;2.43;0.30;;;21.10;58.20;;;;;;5071399;28;20051;-68
2022/09/14 11:06:33;;;;;;;3.37;0.70;;;21.10;58.20;;;;;;5087157;28;20066;-68
2022/09/14 11:09:11;;;;;;;4.90;0.60;;;21.20;58.40;;;;;;5084504;28;20051;-68
2022/09/14 11:11:54;;;;;;;4.33;0.50;;;21.20;58.30;;;;;;5069688;28;20040;-68
2022/09/14 11:14:31;;;;;;;3.40;0.43;;;21.20;58.20;;;;;;5086230;28;20045;-68
2022/09/14 11:17:06;;;;;;;3.77;0.60;;;21.20;58.30;;;;;;5067285;28;20040;-68
2022/09/14 11:19:45;;;;;;;4.22;0.40;;;21.10;58.00;;;;;;5067952;28;20168;-68
2022/09/14 11:22:47;;;;;;;3.47;0.40;;;21.10;57.40;;;;;;5067181;28;20376;-68
2022/09/14 11:25:21;;;;;;;3.47;0.37;;;21.20;56.40;;;;;;5046608;28;20040;-68
2022/09/14 11:27:58;;;;;;;4.57;0.30;;;21.30;57.70;;;;;;5058065;28;20439;-68
2022/09/14 11:30:33;;;;;;;4.23;0.60;;;21.50;57.50;;;;;;5070821;28;20274;-68
2022/09/14 11:33:16;;;;;;;2.47;0.70;;;21.60;57.30;;;;;;5085975;28;20040;-68
2022/09/14 11:36:10;;;;;;;2.97;0.43;;;21.80;57.30;;;;;;5086532;28;20400;-68
2022/09/14 11:38:43;;;;;;;3.10;0.30;;;21.70;55.00;;;;;;5083821;28;20055;-68
2022/09/14 11:41:48;;;;;;;2.63;0.60;;;21.60;55.50;;;;;;5086023;28;20052;-68
2022/09/14 11:44:22;;;;;;;4.53;0.70;;;21.60;54.40;;;;;;5050556;28;20032;-68
2022/09/14 11:47:04;;;;;;;1.93;0.13;;;21.50;56.50;;;;;;5065918;28;20036;-68
2022/09/14 11:49:51;;;;;;;3.20;0.33;;;21.50;55.70;;;;;;5083556;28;20119;-68
2022/09/14 11:52:19;;;;;;;5.10;0.37;;;21.60;54.40;;;;;;5068056;28;20047;-68
2022/09/14 11:54:47;;;;;;;3.37;0.53;;;21.50;54.80;;;;;;5070248;28;20036;-68
2022/09/14 11:57:24;;;;;;;4.37;0.30;;;21.30;54.80;;;;;;5084834;28;20039;-68
2022/09/14 11:59:52;;;;;;;4.37;0.50;;;21.30;53.70;;;;;;5087239;28;20504;-69
2022/09/14 12:02:25;;;;;;;2.40;0.30;;;21.10;53.80;;;;;;5084010;28;20079;-69
2022/09/14 12:05:06;;;;;;;4.27;0.23;;;21.00;54.60;;;;;;5082434;28;20048;-68
2022/09/14 12:07:47;;;;;;;3.00;0.73;;;21.00;54.30;;;;;;5084266;28;20162;-68
2022/09/14 12:10:12;;;;;;;2.20;0.27;;;21.10;55.40;;;;;;5083162;28;20248;-68
2022/09/14 12:12:59;;;;;;;2.13;0.40;;;21.20;55.60;;;;;;5085258;28;20622;-68
2022/09/14 12:15:27;;;;;;;3.50;0.20;;;21.40;54.70;;;;;;5081490;28;20044;-68
2022/09/14 12:18:18;;;;;;;4.17;0.37;;;21.50;54.80;;;;;;5088907;28;20047;-67
2022/09/14 12:20:49;;;;;;;2.47;0.30;;;21.50;54.10;;;;;;5085327;28;20488;-67
2022/09/14 12:23:36;;;;;;;4.13;0.40;;;21.40;54.10;;;;;;5078840;28;20534;-68
2022/09/14 12:26:05;;;;;;;1.83;0.20;;;21.30;54.20;;;;;;5062339;28;20086;-67
2022/09/14 12:28:34;;;;;;;5.13;0.20;;;21.50;55.70;;;;;;5081637;28;20040;-68
2022/09/14 12:31:01;;;;;;;2.70;0.40;;;21.60;54.60;;;;;;5067414;28;20040;-68
2022/09/14 12:34:14;;;;;;;3.60;0.70;;;21.70;55.60;;;;;;5067150;28;20051;-68
2022/09/14 12:36:39;;;;;;;2.40;0.40;;;21.90;52.80;;;;;;5074553;28;20044;-68
2022/09/14 12:39:20;;;;;;;3.60;0.30;;;22.00;53.80;;;;;;5087044;28;20042;-68
2022/09/14 12:41:46;;;;;;;4.47;0.20;;;22.00;53.30;;;;;;5083138;28;20598;-68
2022/09/14 12:44:31;;;;;;;3.20;0.40;;;22.00;53.10;;;;;;5079666;28;20135;-68
2022/09/14 12:46:57;;;;;;;3.85;0.30;;;21.80;52.00;;;;;;5086499;28;20048;-68
2022/09/14 12:49:33;;;;;;;3.73;0.30;;;21.70;53.10;;;;;;5067802;28;20074;-68
2022/09/14 12:52:07;;;;;;;0.53;0.10;;;21.70;52.80;;;;;;5083001;28;20048;-68
2022/09/14 12:54:49;;;;;;;3.15;0.82;;;21.70;52.50;;;;;;5084386;28;20824;-68
2022/09/14 12:57:36;;;;;;;2.38;0.13;;;21.60;52.60;;;;;;5083427;28;20050;-68
2022/09/14 13:00:15;;;;;;;5.93;0.30;;;21.50;52.90;;;;;;5079135;28;20047;-68
2022/09/14 13:02:49;;;;;;;4.10;0.30;;;21.40;53.60;;;;;;5087661;28;20126;-68
2022/09/14 13:05:22;;;;;;;2.83;0.20;;;21.20;53.90;;;;;;5087925;28;20039;-68
2022/09/14 13:07:49;;;;;;;4.43;0.57;;;21.10;54.00;;;;;;5079931;28;20270;-68
2022/09/14 13:10:22;;;;;;;2.60;0.20;;;21.00;54.10;;;;;;5096783;28;20127;-68
2022/09/14 13:12:49;;;;;;;2.43;0.40;;;20.90;54.60;;;;;;5075209;28;20054;-68
2022/09/14 13:15:23;;;;;;;2.53;0.20;;;21.00;55.10;;;;;;5087493;28;20044;-68
2022/09/14 13:18:26;;;;;;;3.00;0.20;;;21.00;54.80;;;;;;5073269;28;20047;-68
2022/09/14 13:21:17;;;;;;;3.17;0.43;;;21.20;54.20;;;;;;5070552;28;20342;-67